sensor_id;sensor_type;location;lat;lon;timestamp;pressure;altitude;pressure_sealevel;temperature;humidity
79400;BME280;68856;45.586;10.264;2023-03-29T00:01:15;100180.16;;;6.06;47.39
79400;BME280;68856;45.586;10.264;2023-03-29T00:03:41;100181.13;;;5.92;47.92
79400;BME280;68856;45.586;10.264;2023-03-29T00:06:10;100182.03;;;6.12;47.37
79400;BME280;68856;45.586;10.264;2023-03-29T00:08:40;100177.69;;;6.11;47.07
79400;BME280;68856;45.586;10.264;2023-03-29T00:11:07;100155.28;;;6.23;45.92
79400;BME280;68856;45.586;10.264;2023-03-29T00:13:34;100159.22;;;6.27;45.63
79400;BME280;68856;45.586;10.264;2023-03-29T00:16:01;100154.03;;;6.13;45.93
79400;BME280;68856;45.586;10.264;2023-03-29T00:18:27;100140.97;;;6.36;45.89
79400;BME280;68856;45.586;10.264;2023-03-29T00:20:58;100150.94;;;6.29;45.54
79400;BME280;68856;45.586;10.264;2023-03-29T00:23:25;100148.22;;;6.22;45.96
79400;BME280;68856;45.586;10.264;2023-03-29T00:25:55;100138.28;;;6.23;45.68
79400;BME280;68856;45.586;10.264;2023-03-29T00:28:22;100143.47;;;6.51;45.62
79400;BME280;68856;45.586;10.264;2023-03-29T00:30:48;100136.81;;;6.53;46.69
79400;BME280;68856;45.586;10.264;2023-03-29T00:33:19;100131.66;;;6.45;46.89
79400;BME280;68856;45.586;10.264;2023-03-29T00:35:46;100132.69;;;6.57;46.65
79400;BME280;68856;45.586;10.264;2023-03-29T00:38:14;100131.22;;;6.61;46.55
79400;BME280;68856;45.586;10.264;2023-03-29T00:40:45;100122.28;;;6.74;46.75
79400;BME280;68856;45.586;10.264;2023-03-29T00:43:13;100105.66;;;6.97;45.38
79400;BME280;68856;45.586;10.264;2023-03-29T00:45:40;100095.47;;;6.85;45.31
79400;BME280;68856;45.586;10.264;2023-03-29T00:48:12;100096.28;;;6.93;45.18
79400;BME280;68856;45.586;10.264;2023-03-29T00:50:46;100099.63;;;6.88;44.61
79400;BME280;68856;45.586;10.264;2023-03-29T00:53:32;100092.97;;;6.84;44.85
79400;BME280;68856;45.586;10.264;2023-03-29T00:56:10;100083.84;;;6.92;46.66
79400;BME280;68856;45.586;10.264;2023-03-29T00:58:43;100090.66;;;7.01;45.73
79400;BME280;68856;45.586;10.264;2023-03-29T01:01:22;100093.31;;;7.14;48.25
79400;BME280;68856;45.586;10.264;2023-03-29T01:04:08;100093.75;;;7.11;47.96
79400;BME280;68856;45.586;10.264;2023-03-29T01:06:48;100087.31;;;7.12;44.73
79400;BME280;68856;45.586;10.264;2023-03-29T01:09:18;100080.69;;;7.01;46.08
79400;BME280;68856;45.586;10.264;2023-03-29T01:11:52;100092.38;;;6.75;47.84
79400;BME280;68856;45.586;10.264;2023-03-29T01:16:55;100092.19;;;6.05;50.03
79400;BME280;68856;45.586;10.264;2023-03-29T01:19:25;100093.66;;;6.34;49.50
79400;BME280;68856;45.586;10.264;2023-03-29T01:29:54;100071.03;;;6.15;49.54
79400;BME280;68856;45.586;10.264;2023-03-29T01:32:30;100071.25;;;6.13;49.27
79400;BME280;68856;45.586;10.264;2023-03-29T01:37:52;100085.97;;;6.17;49.56
79400;BME280;68856;45.586;10.264;2023-03-29T01:40:22;100075.56;;;6.01;48.97
79400;BME280;68856;45.586;10.264;2023-03-29T01:51:17;100082.16;;;5.79;50.30
79400;BME280;68856;45.586;10.264;2023-03-29T01:56:25;100081.38;;;5.85;48.13
79400;BME280;68856;45.586;10.264;2023-03-29T01:59:06;100083.47;;;5.90;49.58
79400;BME280;68856;45.586;10.264;2023-03-29T02:01:43;100084.75;;;6.13;49.27
79400;BME280;68856;45.586;10.264;2023-03-29T02:04:18;100085.56;;;6.01;50.36
79400;BME280;68856;45.586;10.264;2023-03-29T02:06:48;100093.00;;;6.12;49.67
79400;BME280;68856;45.586;10.264;2023-03-29T02:09:19;100092.41;;;6.16;49.72
79400;BME280;68856;45.586;10.264;2023-03-29T02:11:46;100096.53;;;5.93;50.21
79400;BME280;68856;45.586;10.264;2023-03-29T02:14:12;100088.63;;;5.91;48.48
79400;BME280;68856;45.586;10.264;2023-03-29T02:16:40;100077.59;;;5.80;52.14
79400;BME280;68856;45.586;10.264;2023-03-29T02:19:07;100084.84;;;5.73;50.74
79400;BME280;68856;45.586;10.264;2023-03-29T02:21:46;100084.81;;;5.59;51.65
79400;BME280;68856;45.586;10.264;2023-03-29T02:24:18;100087.91;;;5.56;49.72
79400;BME280;68856;45.586;10.264;2023-03-29T02:26:46;100094.22;;;5.83;49.34
79400;BME280;68856;45.586;10.264;2023-03-29T02:29:13;100099.84;;;5.88;49.73
79400;BME280;68856;45.586;10.264;2023-03-29T02:34:24;100091.88;;;5.74;48.74
79400;BME280;68856;45.586;10.264;2023-03-29T02:36:58;100075.78;;;5.87;48.32
79400;BME280;68856;45.586;10.264;2023-03-29T02:39:27;100070.00;;;6.09;48.06
79400;BME280;68856;45.586;10.264;2023-03-29T02:41:57;100061.06;;;6.22;46.59
79400;BME280;68856;45.586;10.264;2023-03-29T02:44:26;100068.34;;;6.15;48.61
79400;BME280;68856;45.586;10.264;2023-03-29T02:47:00;100065.59;;;5.82;50.60
79400;BME280;68856;45.586;10.264;2023-03-29T02:49:28;100071.25;;;6.00;51.27
79400;BME280;68856;45.586;10.264;2023-03-29T02:51:56;100079.34;;;6.13;50.74
79400;BME280;68856;45.586;10.264;2023-03-29T02:54:27;100072.06;;;6.20;51.42
79400;BME280;68856;45.586;10.264;2023-03-29T02:56:59;100079.31;;;6.07;51.48
79400;BME280;68856;45.586;10.264;2023-03-29T02:59:26;100077.66;;;6.12;51.73
79400;BME280;68856;45.586;10.264;2023-03-29T03:01:54;100067.72;;;6.19;51.60
79400;BME280;68856;45.586;10.264;2023-03-29T03:04:21;100064.19;;;5.93;50.92
79400;BME280;68856;45.586;10.264;2023-03-29T03:06:48;100058.66;;;5.47;52.37
79400;BME280;68856;45.586;10.264;2023-03-29T03:09:14;100059.94;;;5.71;50.32
79400;BME280;68856;45.586;10.264;2023-03-29T03:11:40;100052.78;;;5.91;49.97
79400;BME280;68856;45.586;10.264;2023-03-29T03:14:07;100062.09;;;5.95;51.69
79400;BME280;68856;45.586;10.264;2023-03-29T03:16:33;100054.22;;;6.26;51.06
79400;BME280;68856;45.586;10.264;2023-03-29T03:19:00;100054.00;;;6.14;50.96
79400;BME280;68856;45.586;10.264;2023-03-29T03:21:27;100051.53;;;6.19;48.49
79400;BME280;68856;45.586;10.264;2023-03-29T03:23:53;100043.03;;;6.22;49.91
79400;BME280;68856;45.586;10.264;2023-03-29T03:26:21;100048.00;;;6.12;49.90
79400;BME280;68856;45.586;10.264;2023-03-29T03:28:48;100056.66;;;5.82;51.41
79400;BME280;68856;45.586;10.264;2023-03-29T03:31:14;100052.91;;;5.70;51.96
79400;BME280;68856;45.586;10.264;2023-03-29T03:33:41;100059.56;;;5.80;52.65
79400;BME280;68856;45.586;10.264;2023-03-29T03:36:10;100059.16;;;5.83;52.50
79400;BME280;68856;45.586;10.264;2023-03-29T03:38:37;100047.53;;;5.70;53.65
79400;BME280;68856;45.586;10.264;2023-03-29T03:41:04;100045.19;;;5.47;53.07
79400;BME280;68856;45.586;10.264;2023-03-29T03:43:32;100040.22;;;5.44;52.01
79400;BME280;68856;45.586;10.264;2023-03-29T03:45:58;100028.22;;;5.66;51.65
79400;BME280;68856;45.586;10.264;2023-03-29T03:48:25;100044.16;;;5.48;52.78
79400;BME280;68856;45.586;10.264;2023-03-29T03:50:56;100038.38;;;5.64;53.06
79400;BME280;68856;45.586;10.264;2023-03-29T03:53:23;100051.16;;;5.36;52.30
79400;BME280;68856;45.586;10.264;2023-03-29T03:55:53;100055.00;;;5.14;51.53
79400;BME280;68856;45.586;10.264;2023-03-29T03:58:22;100064.81;;;5.28;53.34
79400;BME280;68856;45.586;10.264;2023-03-29T04:00:50;100056.72;;;5.28;53.10
79400;BME280;68856;45.586;10.264;2023-03-29T04:03:16;100054.22;;;5.20;53.13
79400;BME280;68856;45.586;10.264;2023-03-29T04:05:44;100052.13;;;5.15;52.52
79400;BME280;68856;45.586;10.264;2023-03-29T04:08:12;100058.63;;;5.34;51.64
79400;BME280;68856;45.586;10.264;2023-03-29T04:10:39;100051.34;;;5.34;51.79
79400;BME280;68856;45.586;10.264;2023-03-29T04:13:05;100057.53;;;5.22;50.87
79400;BME280;68856;45.586;10.264;2023-03-29T04:15:33;100055.72;;;4.88;56.10
79400;BME280;68856;45.586;10.264;2023-03-29T04:18:03;100062.63;;;5.03;55.82
79400;BME280;68856;45.586;10.264;2023-03-29T04:20:32;100071.63;;;4.83;54.45
79400;BME280;68856;45.586;10.264;2023-03-29T04:22:58;100069.66;;;4.98;52.83
79400;BME280;68856;45.586;10.264;2023-03-29T04:25:24;100070.28;;;5.00;54.57
79400;BME280;68856;45.586;10.264;2023-03-29T04:27:50;100080.91;;;4.74;56.88
79400;BME280;68856;45.586;10.264;2023-03-29T04:30:18;100077.28;;;4.94;57.98
79400;BME280;68856;45.586;10.264;2023-03-29T04:32:44;100076.13;;;5.10;55.12
79400;BME280;68856;45.586;10.264;2023-03-29T04:35:10;100074.44;;;5.02;55.66
79400;BME280;68856;45.586;10.264;2023-03-29T04:37:36;100087.75;;;4.76;55.32
79400;BME280;68856;45.586;10.264;2023-03-29T04:40:06;100081.47;;;5.03;56.06
79400;BME280;68856;45.586;10.264;2023-03-29T04:42:35;100076.59;;;5.27;54.96
79400;BME280;68856;45.586;10.264;2023-03-29T04:45:02;100086.44;;;5.00;54.14
79400;BME280;68856;45.586;10.264;2023-03-29T04:47:28;100088.13;;;5.08;53.89
79400;BME280;68856;45.586;10.264;2023-03-29T04:49:56;100087.28;;;5.07;54.02
79400;BME280;68856;45.586;10.264;2023-03-29T04:52:22;100078.31;;;4.93;53.70
79400;BME280;68856;45.586;10.264;2023-03-29T04:54:48;100070.47;;;4.98;53.95
79400;BME280;68856;45.586;10.264;2023-03-29T04:57:14;100080.59;;;4.90;54.20
79400;BME280;68856;45.586;10.264;2023-03-29T04:59:41;100076.50;;;5.00;54.41
79400;BME280;68856;45.586;10.264;2023-03-29T05:02:08;100082.28;;;4.97;52.87
79400;BME280;68856;45.586;10.264;2023-03-29T05:04:34;100084.47;;;5.22;52.98
79400;BME280;68856;45.586;10.264;2023-03-29T05:07:01;100083.38;;;5.10;53.40
79400;BME280;68856;45.586;10.264;2023-03-29T05:09:28;100089.91;;;4.94;54.27
79400;BME280;68856;45.586;10.264;2023-03-29T05:11:54;100088.53;;;5.04;55.27
79400;BME280;68856;45.586;10.264;2023-03-29T05:14:20;100100.38;;;4.76;55.32
79400;BME280;68856;45.586;10.264;2023-03-29T05:16:48;100103.78;;;4.91;54.09
79400;BME280;68856;45.586;10.264;2023-03-29T05:19:15;100102.91;;;4.84;53.32
79400;BME280;68856;45.586;10.264;2023-03-29T05:21:41;100099.63;;;4.88;53.70
79400;BME280;68856;45.586;10.264;2023-03-29T05:24:08;100101.53;;;5.01;53.68
79400;BME280;68856;45.586;10.264;2023-03-29T05:26:34;100105.31;;;5.07;55.14
79400;BME280;68856;45.586;10.264;2023-03-29T05:29:01;100105.47;;;4.98;54.55
79400;BME280;68856;45.586;10.264;2023-03-29T05:31:27;100106.03;;;4.60;55.24
79400;BME280;68856;45.586;10.264;2023-03-29T05:33:54;100114.34;;;4.65;54.15
79400;BME280;68856;45.586;10.264;2023-03-29T05:36:20;100106.84;;;4.88;55.21
79400;BME280;68856;45.586;10.264;2023-03-29T05:38:46;100098.22;;;4.92;54.10
79400;BME280;68856;45.586;10.264;2023-03-29T05:41:14;100103.63;;;4.99;54.32
79400;BME280;68856;45.586;10.264;2023-03-29T05:43:41;100099.53;;;5.10;54.06
79400;BME280;68856;45.586;10.264;2023-03-29T05:46:08;100103.53;;;5.20;53.30
79400;BME280;68856;45.586;10.264;2023-03-29T05:48:34;100107.59;;;5.03;53.54
79400;BME280;68856;45.586;10.264;2023-03-29T05:51:01;100108.75;;;5.35;54.47
79400;BME280;68856;45.586;10.264;2023-03-29T05:53:28;100114.97;;;5.29;53.66
79400;BME280;68856;45.586;10.264;2023-03-29T05:55:55;100119.47;;;5.22;54.67
79400;BME280;68856;45.586;10.264;2023-03-29T05:58:22;100101.38;;;5.56;52.93
79400;BME280;68856;45.586;10.264;2023-03-29T06:00:51;100101.56;;;5.48;54.07
79400;BME280;68856;45.586;10.264;2023-03-29T06:03:20;100103.47;;;5.54;53.94
79400;BME280;68856;45.586;10.264;2023-03-29T06:05:56;100105.31;;;5.60;53.68
79400;BME280;68856;45.586;10.264;2023-03-29T06:08:23;100088.78;;;5.70;54.18
79400;BME280;68856;45.586;10.264;2023-03-29T06:10:49;100099.78;;;5.82;54.06
79400;BME280;68856;45.586;10.264;2023-03-29T06:13:16;100100.84;;;5.81;52.67
79400;BME280;68856;45.586;10.264;2023-03-29T06:15:43;100101.75;;;6.01;52.58
79400;BME280;68856;45.586;10.264;2023-03-29T06:18:10;100102.56;;;6.14;51.93
79400;BME280;68856;45.586;10.264;2023-03-29T06:20:36;100105.69;;;5.98;52.84
79400;BME280;68856;45.586;10.264;2023-03-29T06:23:03;100101.75;;;6.40;54.47
79400;BME280;68856;45.586;10.264;2023-03-29T06:25:29;100103.19;;;6.56;52.21
79400;BME280;68856;45.586;10.264;2023-03-29T06:27:55;100094.69;;;6.78;52.28
79400;BME280;68856;45.586;10.264;2023-03-29T06:30:21;100093.78;;;6.98;51.99
79400;BME280;68856;45.586;10.264;2023-03-29T06:32:48;100100.34;;;7.28;50.45
79400;BME280;68856;45.586;10.264;2023-03-29T06:35:15;100093.81;;;7.48;50.32
79400;BME280;68856;45.586;10.264;2023-03-29T06:37:41;100091.63;;;7.70;49.43
79400;BME280;68856;45.586;10.264;2023-03-29T06:40:15;100106.47;;;7.92;48.86
79400;BME280;68856;45.586;10.264;2023-03-29T06:42:42;100112.34;;;8.21;46.75
79400;BME280;68856;45.586;10.264;2023-03-29T06:45:10;100111.22;;;8.35;46.45
79400;BME280;68856;45.586;10.264;2023-03-29T06:47:37;100115.59;;;8.36;48.04
79400;BME280;68856;45.586;10.264;2023-03-29T06:50:03;100121.53;;;8.44;47.57
79400;BME280;68856;45.586;10.264;2023-03-29T06:52:31;100120.19;;;8.78;45.98
79400;BME280;68856;45.586;10.264;2023-03-29T06:54:57;100117.16;;;8.93;45.55
79400;BME280;68856;45.586;10.264;2023-03-29T06:57:26;100115.06;;;9.31;42.46
79400;BME280;68856;45.586;10.264;2023-03-29T06:59:53;100125.91;;;9.31;41.76
79400;BME280;68856;45.586;10.264;2023-03-29T07:02:20;100122.09;;;9.68;42.26
79400;BME280;68856;45.586;10.264;2023-03-29T07:04:47;100113.31;;;9.73;41.07
79400;BME280;68856;45.586;10.264;2023-03-29T07:07:13;100121.91;;;9.99;39.56
79400;BME280;68856;45.586;10.264;2023-03-29T07:09:47;100129.44;;;9.97;39.57
79400;BME280;68856;45.586;10.264;2023-03-29T07:12:20;100129.75;;;10.37;42.25
79400;BME280;68856;45.586;10.264;2023-03-29T07:14:47;100138.59;;;10.56;40.09
79400;BME280;68856;45.586;10.264;2023-03-29T07:17:14;100136.03;;;10.73;40.03
79400;BME280;68856;45.586;10.264;2023-03-29T07:19:41;100136.53;;;10.93;41.94
79400;BME280;68856;45.586;10.264;2023-03-29T07:22:08;100138.50;;;11.20;39.92
79400;BME280;68856;45.586;10.264;2023-03-29T07:24:34;100141.81;;;11.46;37.58
79400;BME280;68856;45.586;10.264;2023-03-29T07:27:01;100137.53;;;11.50;37.12
79400;BME280;68856;45.586;10.264;2023-03-29T07:29:27;100141.94;;;11.51;38.08
79400;BME280;68856;45.586;10.264;2023-03-29T07:31:54;100142.13;;;11.61;37.59
79400;BME280;68856;45.586;10.264;2023-03-29T07:34:21;100145.25;;;11.93;38.28
79400;BME280;68856;45.586;10.264;2023-03-29T07:36:47;100144.13;;;12.33;35.59
79400;BME280;68856;45.586;10.264;2023-03-29T07:39:13;100151.91;;;12.58;35.65
79400;BME280;68856;45.586;10.264;2023-03-29T07:41:40;100152.41;;;12.55;34.82
79400;BME280;68856;45.586;10.264;2023-03-29T07:44:06;100138.13;;;12.81;33.80
79400;BME280;68856;45.586;10.264;2023-03-29T07:46:37;100136.63;;;13.24;33.87
79400;BME280;68856;45.586;10.264;2023-03-29T07:49:04;100131.03;;;13.14;33.17
79400;BME280;68856;45.586;10.264;2023-03-29T07:51:31;100128.78;;;13.49;32.85
79400;BME280;68856;45.586;10.264;2023-03-29T07:53:58;100128.66;;;13.60;32.52
79400;BME280;68856;45.586;10.264;2023-03-29T07:56:24;100131.13;;;13.40;31.86
79400;BME280;68856;45.586;10.264;2023-03-29T07:58:51;100129.34;;;13.51;32.32
79400;BME280;68856;45.586;10.264;2023-03-29T08:01:17;100131.25;;;13.50;33.40
79400;BME280;68856;45.586;10.264;2023-03-29T08:03:44;100127.63;;;13.06;32.15
79400;BME280;68856;45.586;10.264;2023-03-29T08:06:10;100130.06;;;13.41;34.31
79400;BME280;68856;45.586;10.264;2023-03-29T08:08:37;100136.03;;;13.60;35.29
79400;BME280;68856;45.586;10.264;2023-03-29T08:11:03;100122.25;;;13.93;32.06
79400;BME280;68856;45.586;10.264;2023-03-29T08:13:29;100117.75;;;13.39;34.52
79400;BME280;68856;45.586;10.264;2023-03-29T08:15:56;100122.03;;;14.00;34.39
79400;BME280;68856;45.586;10.264;2023-03-29T08:18:22;100116.84;;;13.98;31.89
79400;BME280;68856;45.586;10.264;2023-03-29T08:20:49;100121.97;;;13.73;33.60
79400;BME280;68856;45.586;10.264;2023-03-29T08:23:16;100114.94;;;13.77;33.28
79400;BME280;68856;45.586;10.264;2023-03-29T08:25:44;100125.09;;;14.03;34.08
79400;BME280;68856;45.586;10.264;2023-03-29T08:28:10;100121.34;;;13.88;34.23
79400;BME280;68856;45.586;10.264;2023-03-29T08:30:36;100118.50;;;14.04;33.13
79400;BME280;68856;45.586;10.264;2023-03-29T08:33:03;100140.09;;;13.79;34.21
79400;BME280;68856;45.586;10.264;2023-03-29T08:35:29;100127.88;;;13.43;35.13
79400;BME280;68856;45.586;10.264;2023-03-29T08:37:56;100126.28;;;13.26;36.14
79400;BME280;68856;45.586;10.264;2023-03-29T08:40:25;100122.63;;;13.58;35.90
79400;BME280;68856;45.586;10.264;2023-03-29T08:50:50;100128.16;;;13.85;36.00
79400;BME280;68856;45.586;10.264;2023-03-29T08:53:42;100124.47;;;14.23;35.42
79400;BME280;68856;45.586;10.264;2023-03-29T08:56:20;100125.47;;;14.17;34.25
79400;BME280;68856;45.586;10.264;2023-03-29T08:58:49;100112.13;;;13.94;36.00
79400;BME280;68856;45.586;10.264;2023-03-29T09:01:16;100103.19;;;13.98;35.52
79400;BME280;68856;45.586;10.264;2023-03-29T09:06:20;100102.22;;;14.14;37.33
79400;BME280;68856;45.586;10.264;2023-03-29T09:08:50;100115.19;;;14.51;36.69
79400;BME280;68856;45.586;10.264;2023-03-29T09:14:02;100105.78;;;14.68;38.44
79400;BME280;68856;45.586;10.264;2023-03-29T09:16:48;100126.81;;;14.36;37.30
79400;BME280;68856;45.586;10.264;2023-03-29T09:22:23;100115.19;;;14.51;37.33
79400;BME280;68856;45.586;10.264;2023-03-29T09:25:15;100117.66;;;14.84;37.34
79400;BME280;68856;45.586;10.264;2023-03-29T09:30:33;100120.00;;;14.39;37.86
79400;BME280;68856;45.586;10.264;2023-03-29T09:36:05;100114.09;;;14.25;38.35
79400;BME280;68856;45.586;10.264;2023-03-29T09:38:39;100113.28;;;14.51;38.95
79400;BME280;68856;45.586;10.264;2023-03-29T09:41:18;100100.94;;;14.49;38.23
79400;BME280;68856;45.586;10.264;2023-03-29T09:43:47;100090.75;;;14.71;38.24
79400;BME280;68856;45.586;10.264;2023-03-29T09:48:56;100094.09;;;14.46;39.39
79400;BME280;68856;45.586;10.264;2023-03-29T09:51:25;100111.34;;;14.47;39.15
79400;BME280;68856;45.586;10.264;2023-03-29T09:53:55;100088.72;;;14.93;38.76
79400;BME280;68856;45.586;10.264;2023-03-29T09:56:22;100094.09;;;15.20;38.58
79400;BME280;68856;45.586;10.264;2023-03-29T09:58:48;100085.09;;;15.29;38.15
79400;BME280;68856;45.586;10.264;2023-03-29T10:01:15;100086.28;;;14.96;38.94
79400;BME280;68856;45.586;10.264;2023-03-29T10:03:50;100065.88;;;15.14;38.65
79400;BME280;68856;45.586;10.264;2023-03-29T10:06:18;100080.47;;;15.92;37.97
79400;BME280;68856;45.586;10.264;2023-03-29T10:08:53;100076.06;;;15.96;37.88
79400;BME280;68856;45.586;10.264;2023-03-29T10:11:29;100083.25;;;16.32;37.30
79400;BME280;68856;45.586;10.264;2023-03-29T10:14:25;100080.97;;;15.79;39.10
79400;BME280;68856;45.586;10.264;2023-03-29T10:16:54;100069.25;;;16.03;38.43
79400;BME280;68856;45.586;10.264;2023-03-29T10:19:34;100061.28;;;15.97;36.21
79400;BME280;68856;45.586;10.264;2023-03-29T10:22:07;100052.31;;;16.62;36.09
79400;BME280;68856;45.586;10.264;2023-03-29T10:24:39;100049.28;;;16.33;38.04
79400;BME280;68856;45.586;10.264;2023-03-29T10:27:10;100047.06;;;16.40;37.25
79400;BME280;68856;45.586;10.264;2023-03-29T10:29:37;100050.66;;;16.66;37.36
79400;BME280;68856;45.586;10.264;2023-03-29T10:32:16;100045.97;;;16.92;36.79
79400;BME280;68856;45.586;10.264;2023-03-29T10:34:45;100040.66;;;17.20;35.84
79400;BME280;68856;45.586;10.264;2023-03-29T10:37:12;100045.94;;;16.97;36.02
79400;BME280;68856;45.586;10.264;2023-03-29T10:39:41;100039.53;;;17.31;34.18
79400;BME280;68856;45.586;10.264;2023-03-29T10:42:17;100037.84;;;17.40;34.34
79400;BME280;68856;45.586;10.264;2023-03-29T10:44:56;100030.72;;;17.29;35.11
79400;BME280;68856;45.586;10.264;2023-03-29T10:47:23;100038.81;;;16.91;34.82
79400;BME280;68856;45.586;10.264;2023-03-29T10:49:55;100040.44;;;17.07;35.59
79400;BME280;68856;45.586;10.264;2023-03-29T10:52:24;100033.03;;;17.02;35.40
79400;BME280;68856;45.586;10.264;2023-03-29T10:54:53;100028.69;;;16.76;35.48
79400;BME280;68856;45.586;10.264;2023-03-29T10:57:37;100025.91;;;16.91;35.61
79400;BME280;68856;45.586;10.264;2023-03-29T11:02:54;100012.72;;;17.03;34.98
79400;BME280;68856;45.586;10.264;2023-03-29T11:18:29;99998.41;;;18.53;32.53
79400;BME280;68856;45.586;10.264;2023-03-29T11:21:16;99998.81;;;20.16;29.76
79400;BME280;68856;45.586;10.264;2023-03-29T11:23:55;99999.59;;;19.84;29.38
79400;BME280;68856;45.586;10.264;2023-03-29T11:26:32;99996.91;;;19.60;29.62
79400;BME280;68856;45.586;10.264;2023-03-29T11:29:11;99978.78;;;20.75;29.13
79400;BME280;68856;45.586;10.264;2023-03-29T11:42:48;99965.91;;;23.98;23.17
79400;BME280;68856;45.586;10.264;2023-03-29T11:46:07;99956.44;;;23.99;22.21
79400;BME280;68856;45.586;10.264;2023-03-29T11:48:19;99946.41;;;24.58;21.89
79400;BME280;68856;45.586;10.264;2023-03-29T11:51:12;99964.94;;;23.77;22.86
79400;BME280;68856;45.586;10.264;2023-03-29T11:53:43;99968.72;;;22.10;25.17
79400;BME280;68856;45.586;10.264;2023-03-29T11:56:11;99955.75;;;22.63;24.03
79400;BME280;68856;45.586;10.264;2023-03-29T11:58:42;99946.78;;;26.23;20.24
79400;BME280;68856;45.586;10.264;2023-03-29T12:01:15;99943.31;;;26.06;19.83
79400;BME280;68856;45.586;10.264;2023-03-29T12:06:54;99928.28;;;26.96;18.67
79400;BME280;68856;45.586;10.264;2023-03-29T12:11:41;99957.78;;;24.10;21.75
79400;BME280;68856;45.586;10.264;2023-03-29T12:17:10;99944.91;;;26.48;18.77
79400;BME280;68856;45.586;10.264;2023-03-29T12:19:47;99941.59;;;24.75;20.59
79400;BME280;68856;45.586;10.264;2023-03-29T12:22:15;99933.88;;;25.57;20.23
79400;BME280;68856;45.586;10.264;2023-03-29T12:24:43;99939.66;;;24.85;19.85
79400;BME280;68856;45.586;10.264;2023-03-29T12:27:29;99931.50;;;26.09;18.80
79400;BME280;68856;45.586;10.264;2023-03-29T12:33:06;99916.88;;;27.50;16.81
79400;BME280;68856;45.586;10.264;2023-03-29T12:38:24;99901.59;;;28.70;15.87
79400;BME280;68856;45.586;10.264;2023-03-29T12:40:57;99901.72;;;28.74;15.57
79400;BME280;68856;45.586;10.264;2023-03-29T12:43:39;99894.53;;;28.02;16.70
79400;BME280;68856;45.586;10.264;2023-03-29T12:46:21;99896.25;;;27.66;16.29
79400;BME280;68856;45.586;10.264;2023-03-29T12:48:54;99885.59;;;29.18;14.92
79400;BME280;68856;45.586;10.264;2023-03-29T12:51:31;99888.53;;;26.99;17.06
79400;BME280;68856;45.586;10.264;2023-03-29T12:54:22;99883.53;;;26.81;17.35
79400;BME280;68856;45.586;10.264;2023-03-29T12:56:53;99881.19;;;30.05;14.34
79400;BME280;68856;45.586;10.264;2023-03-29T12:59:24;99881.09;;;30.40;14.18
79400;BME280;68856;45.586;10.264;2023-03-29T13:02:56;99877.34;;;29.06;15.12
79400;BME280;68856;45.586;10.264;2023-03-29T13:04:55;99865.63;;;30.95;13.86
79400;BME280;68856;45.586;10.264;2023-03-29T13:09:55;99866.69;;;29.11;14.14
79400;BME280;68856;45.586;10.264;2023-03-29T13:12:28;99866.31;;;30.01;13.63
79400;BME280;68856;45.586;10.264;2023-03-29T13:15:06;99850.81;;;32.50;12.19
79400;BME280;68856;45.586;10.264;2023-03-29T13:20:49;99855.91;;;31.15;12.66
79400;BME280;68856;45.586;10.264;2023-03-29T13:26:33;99844.50;;;29.91;13.22
79400;BME280;68856;45.586;10.264;2023-03-29T13:29:09;99859.13;;;31.14;11.42
79400;BME280;68856;45.586;10.264;2023-03-29T13:32:00;99860.50;;;29.56;13.88
79400;BME280;68856;45.586;10.264;2023-03-29T13:34:53;99858.06;;;28.69;14.38
79400;BME280;68856;45.586;10.264;2023-03-29T13:43:17;99842.75;;;30.93;12.55
79400;BME280;68856;45.586;10.264;2023-03-29T13:48:50;99844.84;;;31.85;11.60
79400;BME280;68856;45.586;10.264;2023-03-29T13:51:20;99850.94;;;31.31;12.33
79400;BME280;68856;45.586;10.264;2023-03-29T13:59:55;99822.16;;;30.37;12.70
79400;BME280;68856;45.586;10.264;2023-03-29T14:02:48;99831.75;;;31.07;12.22
79400;BME280;68856;45.586;10.264;2023-03-29T14:05:22;99821.66;;;32.25;11.09
79400;BME280;68856;45.586;10.264;2023-03-29T14:07:52;99817.84;;;32.95;10.28
79400;BME280;68856;45.586;10.264;2023-03-29T14:10:26;99820.00;;;30.75;12.75
79400;BME280;68856;45.586;10.264;2023-03-29T14:12:56;99821.22;;;31.57;11.96
79400;BME280;68856;45.586;10.264;2023-03-29T14:15:34;99841.81;;;28.90;14.18
79400;BME280;68856;45.586;10.264;2023-03-29T14:18:03;99836.06;;;30.33;13.40
79400;BME280;68856;45.586;10.264;2023-03-29T14:20:31;99841.44;;;30.64;12.70
79400;BME280;68856;45.586;10.264;2023-03-29T14:22:57;99845.97;;;29.50;13.74
79400;BME280;68856;45.586;10.264;2023-03-29T14:25:24;99834.97;;;28.72;14.46
79400;BME280;68856;45.586;10.264;2023-03-29T14:27:50;99834.78;;;30.08;13.09
79400;BME280;68856;45.586;10.264;2023-03-29T14:32:46;99824.72;;;30.71;13.06
79400;BME280;68856;45.586;10.264;2023-03-29T14:35:13;99844.50;;;28.87;14.49
79400;BME280;68856;45.586;10.264;2023-03-29T14:37:41;99850.31;;;27.92;15.50
79400;BME280;68856;45.586;10.264;2023-03-29T14:40:18;99839.50;;;29.65;13.33
79400;BME280;68856;45.586;10.264;2023-03-29T14:42:46;99835.41;;;29.98;14.11
79400;BME280;68856;45.586;10.264;2023-03-29T14:45:15;99825.72;;;31.61;12.38
79400;BME280;68856;45.586;10.264;2023-03-29T14:47:43;99815.53;;;31.23;12.73
79400;BME280;68856;45.586;10.264;2023-03-29T14:50:28;99830.59;;;29.41;14.67
79400;BME280;68856;45.586;10.264;2023-03-29T14:52:57;99832.38;;;28.98;14.86
79400;BME280;68856;45.586;10.264;2023-03-29T14:55:24;99829.09;;;27.75;15.94
79400;BME280;68856;45.586;10.264;2023-03-29T14:57:53;99827.66;;;29.18;15.01
79400;BME280;68856;45.586;10.264;2023-03-29T15:03:01;99831.56;;;26.64;17.21
79400;BME280;68856;45.586;10.264;2023-03-29T15:05:41;99831.09;;;27.90;16.06